sensor_id;sensor_type;location;lat;lon;timestamp;P1;durP1;ratioP1;P2;durP2;ratioP2
14883;SDS011;7534;50.762;7.000;2023-05-23T00:01:41;12.83;;;10.97;;
14883;SDS011;7534;50.762;7.000;2023-05-23T00:04:07;15.20;;;11.23;;
14883;SDS011;7534;50.762;7.000;2023-05-23T00:06:34;15.33;;;11.90;;
14883;SDS011;7534;50.762;7.000;2023-05-23T00:09:00;15.73;;;10.88;;
14883;SDS011;7534;50.762;7.000;2023-05-23T00:11:26;12.48;;;11.02;;
14883;SDS011;7534;50.762;7.000;2023-05-23T00:13:53;12.47;;;10.60;;
14883;SDS011;7534;50.762;7.000;2023-05-23T00:16:19;11.93;;;10.63;;
14883;SDS011;7534;50.762;7.000;2023-05-23T00:18:46;11.63;;;10.40;;
14883;SDS011;7534;50.762;7.000;2023-05-23T00:21:14;11.35;;;10.18;;
14883;SDS011;7534;50.762;7.000;2023-05-23T00:23:40;11.90;;;8.80;;
14883;SDS011;7534;50.762;7.000;2023-05-23T00:26:07;10.80;;;9.80;;
14883;SDS011;7534;50.762;7.000;2023-05-23T00:28:33;10.80;;;9.80;;
14883;SDS011;7534;50.762;7.000;2023-05-23T00:30:59;11.07;;;10.00;;
14883;SDS011;7534;50.762;7.000;2023-05-23T00:33:25;11.60;;;10.40;;
14883;SDS011;7534;50.762;7.000;2023-05-23T00:35:50;11.97;;;10.60;;
14883;SDS011;7534;50.762;7.000;2023-05-23T00:38:16;11.70;;;10.43;;
14883;SDS011;7534;50.762;7.000;2023-05-23T00:40:43;14.03;;;10.10;;
14883;SDS011;7534;50.762;7.000;2023-05-23T00:43:08;11.73;;;10.03;;
14883;SDS011;7534;50.762;7.000;2023-05-23T00:45:34;12.00;;;10.80;;
14883;SDS011;7534;50.762;7.000;2023-05-23T00:48:00;12.23;;;10.83;;
14883;SDS011;7534;50.762;7.000;2023-05-23T00:50:28;11.87;;;10.67;;
14883;SDS011;7534;50.762;7.000;2023-05-23T00:52:55;12.53;;;10.63;;
14883;SDS011;7534;50.762;7.000;2023-05-23T00:55:23;13.40;;;11.00;;
14883;SDS011;7534;50.762;7.000;2023-05-23T00:57:49;13.60;;;11.93;;
14883;SDS011;7534;50.762;7.000;2023-05-23T01:00:19;15.33;;;12.40;;
14883;SDS011;7534;50.762;7.000;2023-05-23T01:02:46;13.77;;;12.33;;
14883;SDS011;7534;50.762;7.000;2023-05-23T01:05:16;14.90;;;13.23;;
14883;SDS011;7534;50.762;7.000;2023-05-23T01:07:46;16.17;;;13.70;;
14883;SDS011;7534;50.762;7.000;2023-05-23T01:10:16;15.53;;;13.60;;
14883;SDS011;7534;50.762;7.000;2023-05-23T01:18:37;16.70;;;13.27;;
14883;SDS011;7534;50.762;7.000;2023-05-23T01:21:40;15.13;;;13.20;;
14883;SDS011;7534;50.762;7.000;2023-05-23T01:24:31;13.73;;;12.30;;
14883;SDS011;7534;50.762;7.000;2023-05-23T01:27:22;14.93;;;13.07;;
14883;SDS011;7534;50.762;7.000;2023-05-23T01:30:06;14.03;;;12.63;;
14883;SDS011;7534;50.762;7.000;2023-05-23T01:32:37;14.30;;;12.90;;
14883;SDS011;7534;50.762;7.000;2023-05-23T01:35:04;14.70;;;13.10;;
14883;SDS011;7534;50.762;7.000;2023-05-23T01:37:31;14.07;;;12.63;;
14883;SDS011;7534;50.762;7.000;2023-05-23T01:39:57;14.50;;;12.73;;
14883;SDS011;7534;50.762;7.000;2023-05-23T01:42:22;13.40;;;12.10;;
14883;SDS011;7534;50.762;7.000;2023-05-23T01:44:48;13.70;;;12.30;;
14883;SDS011;7534;50.762;7.000;2023-05-23T01:47:16;13.47;;;12.17;;
14883;SDS011;7534;50.762;7.000;2023-05-23T01:49:42;13.23;;;11.87;;
14883;SDS011;7534;50.762;7.000;2023-05-23T01:52:09;13.73;;;12.33;;
14883;SDS011;7534;50.762;7.000;2023-05-23T01:54:37;14.35;;;12.52;;
14883;SDS011;7534;50.762;7.000;2023-05-23T01:57:06;15.00;;;13.20;;
14883;SDS011;7534;50.762;7.000;2023-05-23T01:59:32;15.53;;;12.80;;
14883;SDS011;7534;50.762;7.000;2023-05-23T02:01:58;15.03;;;12.50;;
14883;SDS011;7534;50.762;7.000;2023-05-23T02:04:24;15.57;;;12.68;;
14883;SDS011;7534;50.762;7.000;2023-05-23T02:06:49;14.23;;;12.73;;
14883;SDS011;7534;50.762;7.000;2023-05-23T02:09:15;14.35;;;12.95;;
14883;SDS011;7534;50.762;7.000;2023-05-23T02:11:41;14.23;;;12.73;;
14883;SDS011;7534;50.762;7.000;2023-05-23T02:14:06;14.37;;;12.40;;
14883;SDS011;7534;50.762;7.000;2023-05-23T02:16:33;13.45;;;12.05;;
14883;SDS011;7534;50.762;7.000;2023-05-23T02:19:00;15.03;;;13.53;;
14883;SDS011;7534;50.762;7.000;2023-05-23T02:21:25;15.02;;;13.43;;
14883;SDS011;7534;50.762;7.000;2023-05-23T02:23:51;13.80;;;12.50;;
14883;SDS011;7534;50.762;7.000;2023-05-23T02:26:17;13.88;;;12.40;;
14883;SDS011;7534;50.762;7.000;2023-05-23T02:28:43;9.50;;;8.60;;
14883;SDS011;7534;50.762;7.000;2023-05-23T02:31:08;7.88;;;7.07;;
14883;SDS011;7534;50.762;7.000;2023-05-23T02:33:35;7.00;;;6.32;;
14883;SDS011;7534;50.762;7.000;2023-05-23T02:36:00;6.40;;;5.80;;
14883;SDS011;7534;50.762;7.000;2023-05-23T02:38:27;5.73;;;5.20;;
14883;SDS011;7534;50.762;7.000;2023-05-23T02:40:54;6.20;;;5.60;;
14883;SDS011;7534;50.762;7.000;2023-05-23T02:43:21;5.37;;;4.87;;
14883;SDS011;7534;50.762;7.000;2023-05-23T02:45:47;5.03;;;4.57;;
14883;SDS011;7534;50.762;7.000;2023-05-23T02:48:13;7.05;;;4.50;;
14883;SDS011;7534;50.762;7.000;2023-05-23T02:50:40;5.47;;;4.67;;
14883;SDS011;7534;50.762;7.000;2023-05-23T02:53:05;4.90;;;4.40;;
14883;SDS011;7534;50.762;7.000;2023-05-23T02:55:31;5.27;;;4.77;;
14883;SDS011;7534;50.762;7.000;2023-05-23T02:57:57;4.90;;;4.47;;
14883;SDS011;7534;50.762;7.000;2023-05-23T03:00:23;4.65;;;4.15;;
14883;SDS011;7534;50.762;7.000;2023-05-23T03:02:49;5.20;;;4.72;;
14883;SDS011;7534;50.762;7.000;2023-05-23T03:05:15;5.27;;;4.77;;
14883;SDS011;7534;50.762;7.000;2023-05-23T03:07:41;4.77;;;4.37;;
14883;SDS011;7534;50.762;7.000;2023-05-23T03:10:08;9.33;;;4.93;;
14883;SDS011;7534;50.762;7.000;2023-05-23T03:12:34;5.57;;;4.47;;
14883;SDS011;7534;50.762;7.000;2023-05-23T03:15:00;4.87;;;4.47;;
14883;SDS011;7534;50.762;7.000;2023-05-23T03:17:26;5.27;;;4.77;;
14883;SDS011;7534;50.762;7.000;2023-05-23T03:19:52;5.50;;;4.43;;
14883;SDS011;7534;50.762;7.000;2023-05-23T03:22:18;4.90;;;4.40;;
14883;SDS011;7534;50.762;7.000;2023-05-23T03:24:44;6.30;;;4.67;;
14883;SDS011;7534;50.762;7.000;2023-05-23T03:27:09;5.67;;;5.07;;
14883;SDS011;7534;50.762;7.000;2023-05-23T03:29:35;6.47;;;5.43;;
14883;SDS011;7534;50.762;7.000;2023-05-23T03:32:00;6.27;;;5.67;;
14883;SDS011;7534;50.762;7.000;2023-05-23T03:34:26;7.38;;;6.68;;
14883;SDS011;7534;50.762;7.000;2023-05-23T03:36:52;7.40;;;6.60;;
14883;SDS011;7534;50.762;7.000;2023-05-23T03:39:17;8.07;;;6.43;;
14883;SDS011;7534;50.762;7.000;2023-05-23T03:41:43;7.87;;;7.10;;
14883;SDS011;7534;50.762;7.000;2023-05-23T03:44:09;8.17;;;7.37;;
14883;SDS011;7534;50.762;7.000;2023-05-23T03:46:35;7.73;;;7.00;;
14883;SDS011;7534;50.762;7.000;2023-05-23T03:49:01;8.37;;;7.57;;
14883;SDS011;7534;50.762;7.000;2023-05-23T03:51:27;9.20;;;7.63;;
14883;SDS011;7534;50.762;7.000;2023-05-23T03:53:53;8.80;;;7.90;;
14883;SDS011;7534;50.762;7.000;2023-05-23T03:56:19;8.50;;;7.70;;
14883;SDS011;7534;50.762;7.000;2023-05-23T03:58:45;9.63;;;8.60;;
14883;SDS011;7534;50.762;7.000;2023-05-23T04:01:10;8.97;;;8.07;;
14883;SDS011;7534;50.762;7.000;2023-05-23T04:03:37;9.90;;;8.90;;
14883;SDS011;7534;50.762;7.000;2023-05-23T04:06:03;10.07;;;9.07;;
14883;SDS011;7534;50.762;7.000;2023-05-23T04:08:28;9.73;;;8.80;;
14883;SDS011;7534;50.762;7.000;2023-05-23T04:10:57;10.00;;;9.07;;
14883;SDS011;7534;50.762;7.000;2023-05-23T04:13:27;10.73;;;9.60;;
14883;SDS011;7534;50.762;7.000;2023-05-23T04:15:54;10.97;;;9.87;;
14883;SDS011;7534;50.762;7.000;2023-05-23T04:18:20;11.03;;;9.87;;
14883;SDS011;7534;50.762;7.000;2023-05-23T04:20:47;10.20;;;9.23;;
14883;SDS011;7534;50.762;7.000;2023-05-23T04:23:13;10.90;;;9.80;;
14883;SDS011;7534;50.762;7.000;2023-05-23T04:25:39;10.77;;;9.67;;
14883;SDS011;7534;50.762;7.000;2023-05-23T04:28:05;11.43;;;9.97;;
14883;SDS011;7534;50.762;7.000;2023-05-23T04:30:31;10.67;;;9.57;;
14883;SDS011;7534;50.762;7.000;2023-05-23T04:32:57;10.60;;;9.50;;
14883;SDS011;7534;50.762;7.000;2023-05-23T04:35:24;10.67;;;9.57;;
14883;SDS011;7534;50.762;7.000;2023-05-23T04:37:52;10.87;;;9.77;;
14883;SDS011;7534;50.762;7.000;2023-05-23T04:40:21;12.60;;;10.23;;
14883;SDS011;7534;50.762;7.000;2023-05-23T04:42:49;10.47;;;9.50;;
14883;SDS011;7534;50.762;7.000;2023-05-23T04:45:18;11.63;;;10.03;;
14883;SDS011;7534;50.762;7.000;2023-05-23T04:47:44;11.37;;;10.37;;
14883;SDS011;7534;50.762;7.000;2023-05-23T04:50:10;12.13;;;10.70;;
14883;SDS011;7534;50.762;7.000;2023-05-23T04:52:36;11.90;;;9.77;;
14883;SDS011;7534;50.762;7.000;2023-05-23T04:55:01;10.63;;;9.33;;
14883;SDS011;7534;50.762;7.000;2023-05-23T04:57:28;11.23;;;10.17;;
14883;SDS011;7534;50.762;7.000;2023-05-23T04:59:53;11.50;;;10.30;;
14883;SDS011;7534;50.762;7.000;2023-05-23T05:02:20;11.73;;;10.53;;
14883;SDS011;7534;50.762;7.000;2023-05-23T05:04:46;10.87;;;9.77;;
14883;SDS011;7534;50.762;7.000;2023-05-23T05:07:12;11.83;;;9.80;;
14883;SDS011;7534;50.762;7.000;2023-05-23T05:09:37;11.53;;;10.33;;
14883;SDS011;7534;50.762;7.000;2023-05-23T05:12:03;12.10;;;10.80;;
14883;SDS011;7534;50.762;7.000;2023-05-23T05:14:29;11.43;;;10.23;;
14883;SDS011;7534;50.762;7.000;2023-05-23T05:16:55;11.90;;;10.70;;
14883;SDS011;7534;50.762;7.000;2023-05-23T05:19:21;11.43;;;10.23;;
14883;SDS011;7534;50.762;7.000;2023-05-23T05:21:48;12.80;;;10.27;;
14883;SDS011;7534;50.762;7.000;2023-05-23T05:24:14;12.67;;;9.53;;
14883;SDS011;7534;50.762;7.000;2023-05-23T05:26:39;12.40;;;9.60;;
14883;SDS011;7534;50.762;7.000;2023-05-23T05:29:06;12.03;;;9.27;;
14883;SDS011;7534;50.762;7.000;2023-05-23T05:31:31;10.07;;;9.03;;
14883;SDS011;7534;50.762;7.000;2023-05-23T05:33:57;11.37;;;9.30;;
14883;SDS011;7534;50.762;7.000;2023-05-23T05:36:23;11.10;;;9.00;;
14883;SDS011;7534;50.762;7.000;2023-05-23T05:38:49;10.80;;;9.70;;
14883;SDS011;7534;50.762;7.000;2023-05-23T05:41:15;11.67;;;9.13;;
14883;SDS011;7534;50.762;7.000;2023-05-23T05:43:41;10.80;;;9.00;;
14883;SDS011;7534;50.762;7.000;2023-05-23T05:46:06;10.63;;;9.63;;
14883;SDS011;7534;50.762;7.000;2023-05-23T05:48:32;10.50;;;9.40;;
14883;SDS011;7534;50.762;7.000;2023-05-23T05:50:58;11.80;;;10.60;;
14883;SDS011;7534;50.762;7.000;2023-05-23T05:53:25;11.30;;;9.73;;
14883;SDS011;7534;50.762;7.000;2023-05-23T05:55:50;11.67;;;10.10;;
14883;SDS011;7534;50.762;7.000;2023-05-23T05:58:18;10.83;;;9.83;;
14883;SDS011;7534;50.762;7.000;2023-05-23T06:00:43;11.93;;;10.60;;
14883;SDS011;7534;50.762;7.000;2023-05-23T06:03:09;11.80;;;10.60;;
14883;SDS011;7534;50.762;7.000;2023-05-23T06:05:36;11.40;;;9.57;;
14883;SDS011;7534;50.762;7.000;2023-05-23T06:08:03;12.30;;;10.93;;
14883;SDS011;7534;50.762;7.000;2023-05-23T06:10:29;13.43;;;10.63;;
14883;SDS011;7534;50.762;7.000;2023-05-23T06:12:55;14.97;;;10.60;;
14883;SDS011;7534;50.762;7.000;2023-05-23T06:15:22;11.40;;;10.27;;
14883;SDS011;7534;50.762;7.000;2023-05-23T06:17:48;12.27;;;10.02;;
14883;SDS011;7534;50.762;7.000;2023-05-23T06:20:14;13.50;;;10.57;;
14883;SDS011;7534;50.762;7.000;2023-05-23T06:22:39;13.23;;;10.87;;
14883;SDS011;7534;50.762;7.000;2023-05-23T06:25:05;12.47;;;11.17;;
14883;SDS011;7534;50.762;7.000;2023-05-23T06:27:31;13.20;;;10.97;;
14883;SDS011;7534;50.762;7.000;2023-05-23T06:29:57;13.43;;;12.02;;
14883;SDS011;7534;50.762;7.000;2023-05-23T06:32:23;12.83;;;10.87;;
14883;SDS011;7534;50.762;7.000;2023-05-23T06:34:48;12.47;;;11.17;;
14883;SDS011;7534;50.762;7.000;2023-05-23T06:37:14;12.60;;;11.30;;
14883;SDS011;7534;50.762;7.000;2023-05-23T06:39:41;12.50;;;11.30;;
14883;SDS011;7534;50.762;7.000;2023-05-23T06:42:06;13.40;;;12.00;;
14883;SDS011;7534;50.762;7.000;2023-05-23T06:44:32;14.53;;;11.80;;
14883;SDS011;7534;50.762;7.000;2023-05-23T06:46:58;14.65;;;11.90;;
14883;SDS011;7534;50.762;7.000;2023-05-23T06:49:24;14.83;;;11.57;;
14883;SDS011;7534;50.762;7.000;2023-05-23T06:51:50;12.83;;;11.53;;
14883;SDS011;7534;50.762;7.000;2023-05-23T06:54:16;13.32;;;12.13;;
14883;SDS011;7534;50.762;7.000;2023-05-23T06:56:43;12.67;;;11.33;;
14883;SDS011;7534;50.762;7.000;2023-05-23T06:59:09;15.40;;;12.25;;
14883;SDS011;7534;50.762;7.000;2023-05-23T07:01:35;14.60;;;11.93;;
14883;SDS011;7534;50.762;7.000;2023-05-23T07:04:00;12.37;;;10.87;;
14883;SDS011;7534;50.762;7.000;2023-05-23T07:06:26;12.23;;;10.77;;
14883;SDS011;7534;50.762;7.000;2023-05-23T07:08:52;12.57;;;10.57;;
14883;SDS011;7534;50.762;7.000;2023-05-23T07:11:19;11.65;;;9.80;;
14883;SDS011;7534;50.762;7.000;2023-05-23T07:13:46;12.07;;;10.73;;
14883;SDS011;7534;50.762;7.000;2023-05-23T07:16:12;12.75;;;10.52;;
14883;SDS011;7534;50.762;7.000;2023-05-23T07:18:37;12.90;;;11.48;;
14883;SDS011;7534;50.762;7.000;2023-05-23T07:21:03;12.10;;;10.90;;
14883;SDS011;7534;50.762;7.000;2023-05-23T07:23:32;13.60;;;11.60;;
14883;SDS011;7534;50.762;7.000;2023-05-23T07:25:58;14.20;;;11.37;;
14883;SDS011;7534;50.762;7.000;2023-05-23T07:28:25;12.07;;;10.93;;
14883;SDS011;7534;50.762;7.000;2023-05-23T07:30:51;12.27;;;10.90;;
14883;SDS011;7534;50.762;7.000;2023-05-23T07:33:16;13.40;;;10.67;;
14883;SDS011;7534;50.762;7.000;2023-05-23T07:35:43;12.27;;;10.52;;
14883;SDS011;7534;50.762;7.000;2023-05-23T07:38:09;10.95;;;9.65;;
14883;SDS011;7534;50.762;7.000;2023-05-23T07:40:34;12.13;;;9.18;;
14883;SDS011;7534;50.762;7.000;2023-05-23T07:43:02;11.20;;;8.75;;
14883;SDS011;7534;50.762;7.000;2023-05-23T07:45:28;11.38;;;7.95;;
14883;SDS011;7534;50.762;7.000;2023-05-23T07:47:54;8.63;;;7.07;;
14883;SDS011;7534;50.762;7.000;2023-05-23T07:50:19;9.57;;;6.53;;
14883;SDS011;7534;50.762;7.000;2023-05-23T07:52:45;7.47;;;6.63;;
14883;SDS011;7534;50.762;7.000;2023-05-23T07:55:11;8.35;;;6.20;;
14883;SDS011;7534;50.762;7.000;2023-05-23T07:57:37;6.90;;;6.18;;
14883;SDS011;7534;50.762;7.000;2023-05-23T08:00:03;7.95;;;6.10;;
14883;SDS011;7534;50.762;7.000;2023-05-23T08:02:30;8.07;;;6.40;;
14883;SDS011;7534;50.762;7.000;2023-05-23T08:04:56;6.82;;;6.03;;
14883;SDS011;7534;50.762;7.000;2023-05-23T08:07:23;7.18;;;6.13;;
14883;SDS011;7534;50.762;7.000;2023-05-23T08:09:49;7.47;;;5.70;;
14883;SDS011;7534;50.762;7.000;2023-05-23T08:12:14;8.23;;;6.20;;
14883;SDS011;7534;50.762;7.000;2023-05-23T08:14:40;7.63;;;6.00;;
14883;SDS011;7534;50.762;7.000;2023-05-23T08:17:06;9.48;;;6.35;;
14883;SDS011;7534;50.762;7.000;2023-05-23T08:19:31;7.72;;;5.95;;
14883;SDS011;7534;50.762;7.000;2023-05-23T08:21:57;8.02;;;6.30;;
14883;SDS011;7534;50.762;7.000;2023-05-23T08:24:23;7.68;;;6.50;;
14883;SDS011;7534;50.762;7.000;2023-05-23T08:26:48;7.15;;;6.10;;
14883;SDS011;7534;50.762;7.000;2023-05-23T08:29:14;7.13;;;5.80;;
14883;SDS011;7534;50.762;7.000;2023-05-23T08:31:40;7.53;;;6.53;;
14883;SDS011;7534;50.762;7.000;2023-05-23T08:34:06;9.98;;;6.30;;
14883;SDS011;7534;50.762;7.000;2023-05-23T08:36:32;7.40;;;5.90;;
14883;SDS011;7534;50.762;7.000;2023-05-23T08:39:01;8.13;;;6.32;;
14883;SDS011;7534;50.762;7.000;2023-05-23T08:41:28;8.00;;;6.43;;
14883;SDS011;7534;50.762;7.000;2023-05-23T08:43:55;8.05;;;5.97;;
14883;SDS011;7534;50.762;7.000;2023-05-23T08:46:22;8.10;;;6.05;;
14883;SDS011;7534;50.762;7.000;2023-05-23T08:48:52;6.80;;;5.68;;
14883;SDS011;7534;50.762;7.000;2023-05-23T08:51:22;6.97;;;6.22;;
14883;SDS011;7534;50.762;7.000;2023-05-23T08:53:51;8.82;;;6.93;;
14883;SDS011;7534;50.762;7.000;2023-05-23T08:56:20;11.05;;;7.82;;
14883;SDS011;7534;50.762;7.000;2023-05-23T08:58:48;11.52;;;8.90;;
14883;SDS011;7534;50.762;7.000;2023-05-23T09:01:14;10.85;;;9.75;;
14883;SDS011;7534;50.762;7.000;2023-05-23T09:03:44;12.77;;;10.48;;
14883;SDS011;7534;50.762;7.000;2023-05-23T09:06:09;12.98;;;11.13;;
14883;SDS011;7534;50.762;7.000;2023-05-23T09:08:35;12.20;;;10.93;;
14883;SDS011;7534;50.762;7.000;2023-05-23T09:11:02;11.77;;;10.50;;
14883;SDS011;7534;50.762;7.000;2023-05-23T09:13:30;13.00;;;11.32;;
14883;SDS011;7534;50.762;7.000;2023-05-23T09:18:26;16.33;;;11.70;;
14883;SDS011;7534;50.762;7.000;2023-05-23T09:21:07;14.13;;;11.07;;
14883;SDS011;7534;50.762;7.000;2023-05-23T09:23:34;12.80;;;11.07;;
14883;SDS011;7534;50.762;7.000;2023-05-23T09:26:02;13.03;;;10.23;;
14883;SDS011;7534;50.762;7.000;2023-05-23T09:28:30;13.17;;;10.13;;
14883;SDS011;7534;50.762;7.000;2023-05-23T09:31:00;9.97;;;8.80;;
14883;SDS011;7534;50.762;7.000;2023-05-23T09:33:48;10.77;;;8.43;;
14883;SDS011;7534;50.762;7.000;2023-05-23T09:36:17;11.48;;;8.88;;
14883;SDS011;7534;50.762;7.000;2023-05-23T09:38:44;12.00;;;8.00;;
14883;SDS011;7534;50.762;7.000;2023-05-23T09:41:12;12.00;;;9.05;;
14883;SDS011;7534;50.762;7.000;2023-05-23T09:43:38;14.50;;;10.63;;
14883;SDS011;7534;50.762;7.000;2023-05-23T09:46:18;15.88;;;11.55;;
14883;SDS011;7534;50.762;7.000;2023-05-23T09:48:48;16.67;;;12.85;;
14883;SDS011;7534;50.762;7.000;2023-05-23T09:51:17;16.27;;;12.50;;
14883;SDS011;7534;50.762;7.000;2023-05-23T09:53:48;15.50;;;11.68;;
14883;SDS011;7534;50.762;7.000;2023-05-23T09:56:15;15.35;;;10.80;;
14883;SDS011;7534;50.762;7.000;2023-05-23T09:58:46;13.53;;;10.53;;
14883;SDS011;7534;50.762;7.000;2023-05-23T10:01:13;13.02;;;11.52;;
14883;SDS011;7534;50.762;7.000;2023-05-23T10:03:44;13.77;;;12.13;;
14883;SDS011;7534;50.762;7.000;2023-05-23T10:06:28;18.23;;;12.97;;
14883;SDS011;7534;50.762;7.000;2023-05-23T10:09:04;17.23;;;13.27;;
14883;SDS011;7534;50.762;7.000;2023-05-23T10:13:58;16.37;;;13.67;;
14883;SDS011;7534;50.762;7.000;2023-05-23T10:16:54;16.40;;;14.00;;
14883;SDS011;7534;50.762;7.000;2023-05-23T10:19:57;16.20;;;13.73;;
14883;SDS011;7534;50.762;7.000;2023-05-23T10:22:32;15.63;;;12.60;;
14883;SDS011;7534;50.762;7.000;2023-05-23T10:25:02;19.47;;;12.77;;
14883;SDS011;7534;50.762;7.000;2023-05-23T10:27:34;14.43;;;10.90;;
14883;SDS011;7534;50.762;7.000;2023-05-23T10:30:04;15.27;;;9.33;;
14883;SDS011;7534;50.762;7.000;2023-05-23T10:32:34;13.63;;;9.17;;
14883;SDS011;7534;50.762;7.000;2023-05-23T10:35:06;12.33;;;8.07;;
14883;SDS011;7534;50.762;7.000;2023-05-23T10:38:04;12.13;;;7.70;;
14883;SDS011;7534;50.762;7.000;2023-05-23T10:43:59;11.43;;;7.50;;
14883;SDS011;7534;50.762;7.000;2023-05-23T10:47:10;9.43;;;7.30;;
14883;SDS011;7534;50.762;7.000;2023-05-23T10:49:42;8.83;;;7.33;;
14883;SDS011;7534;50.762;7.000;2023-05-23T10:52:14;9.38;;;7.28;;
14883;SDS011;7534;50.762;7.000;2023-05-23T10:54:52;8.48;;;6.85;;
14883;SDS011;7534;50.762;7.000;2023-05-23T10:57:20;13.77;;;6.95;;
14883;SDS011;7534;50.762;7.000;2023-05-23T10:59:53;8.00;;;6.10;;
14883;SDS011;7534;50.762;7.000;2023-05-23T11:02:24;10.52;;;5.85;;
14883;SDS011;7534;50.762;7.000;2023-05-23T11:07:41;9.15;;;6.20;;
14883;SDS011;7534;50.762;7.000;2023-05-23T11:10:10;8.02;;;5.32;;
14883;SDS011;7534;50.762;7.000;2023-05-23T11:12:41;7.70;;;6.18;;
14883;SDS011;7534;50.762;7.000;2023-05-23T11:15:18;8.23;;;6.05;;
14883;SDS011;7534;50.762;7.000;2023-05-23T11:17:49;7.70;;;5.93;;
14883;SDS011;7534;50.762;7.000;2023-05-23T11:20:24;9.07;;;6.13;;
14883;SDS011;7534;50.762;7.000;2023-05-23T11:22:59;6.90;;;5.43;;
14883;SDS011;7534;50.762;7.000;2023-05-23T11:28:17;7.60;;;5.90;;
14883;SDS011;7534;50.762;7.000;2023-05-23T11:30:46;10.40;;;6.18;;
14883;SDS011;7534;50.762;7.000;2023-05-23T11:33:14;7.65;;;5.88;;
14883;SDS011;7534;50.762;7.000;2023-05-23T11:35:45;11.10;;;6.10;;
14883;SDS011;7534;50.762;7.000;2023-05-23T11:38:19;6.60;;;5.90;;
14883;SDS011;7534;50.762;7.000;2023-05-23T11:40:45;8.75;;;5.93;;
14883;SDS011;7534;50.762;7.000;2023-05-23T11:43:19;9.05;;;5.50;;
14883;SDS011;7534;50.762;7.000;2023-05-23T11:45:44;7.25;;;5.95;;
14883;SDS011;7534;50.762;7.000;2023-05-23T11:48:11;6.35;;;5.47;;
14883;SDS011;7534;50.762;7.000;2023-05-23T11:50:51;6.45;;;5.43;;
14883;SDS011;7534;50.762;7.000;2023-05-23T11:53:19;7.85;;;5.65;;
14883;SDS011;7534;50.762;7.000;2023-05-23T11:55:53;6.75;;;4.65;;
14883;SDS011;7534;50.762;7.000;2023-05-23T11:58:34;6.35;;;5.07;;
14883;SDS011;7534;50.762;7.000;2023-05-23T12:03:29;8.52;;;5.90;;
14883;SDS011;7534;50.762;7.000;2023-05-23T12:05:56;8.10;;;5.60;;
14883;SDS011;7534;50.762;7.000;2023-05-23T12:08:23;10.43;;;5.43;;
14883;SDS011;7534;50.762;7.000;2023-05-23T12:10:52;7.45;;;5.50;;
14883;SDS011;7534;50.762;7.000;2023-05-23T12:13:23;6.50;;;5.55;;
14883;SDS011;7534;50.762;7.000;2023-05-23T12:15:58;8.07;;;5.88;;
14883;SDS011;7534;50.762;7.000;2023-05-23T12:18:30;8.63;;;6.80;;
14883;SDS011;7534;50.762;7.000;2023-05-23T12:21:00;9.55;;;6.72;;
14883;SDS011;7534;50.762;7.000;2023-05-23T12:23:32;7.30;;;6.18;;
14883;SDS011;7534;50.762;7.000;2023-05-23T12:25:59;6.68;;;5.97;;
14883;SDS011;7534;50.762;7.000;2023-05-23T12:28:40;5.97;;;5.43;;
14883;SDS011;7534;50.762;7.000;2023-05-23T12:31:09;6.93;;;5.35;;
14883;SDS011;7534;50.762;7.000;2023-05-23T12:33:40;7.22;;;5.75;;
14883;SDS011;7534;50.762;7.000;2023-05-23T12:36:08;7.25;;;6.50;;
14883;SDS011;7534;50.762;7.000;2023-05-23T12:38:37;6.63;;;4.90;;
14883;SDS011;7534;50.762;7.000;2023-05-23T12:41:22;6.05;;;5.20;;
14883;SDS011;7534;50.762;7.000;2023-05-23T12:43:49;8.15;;;6.45;;
14883;SDS011;7534;50.762;7.000;2023-05-23T12:46:19;9.02;;;6.47;;
14883;SDS011;7534;50.762;7.000;2023-05-23T12:48:47;7.50;;;5.95;;
14883;SDS011;7534;50.762;7.000;2023-05-23T12:51:13;7.47;;;6.43;;
14883;SDS011;7534;50.762;7.000;2023-05-23T12:53:39;7.55;;;6.22;;
14883;SDS011;7534;50.762;7.000;2023-05-23T12:56:05;8.38;;;7.10;;
14883;SDS011;7534;50.762;7.000;2023-05-23T12:58:31;8.25;;;6.97;;
14883;SDS011;7534;50.762;7.000;2023-05-23T13:00:58;7.55;;;6.68;;
14883;SDS011;7534;50.762;7.000;2023-05-23T13:03:24;9.98;;;6.75;;
14883;SDS011;7534;50.762;7.000;2023-05-23T13:05:50;7.20;;;6.22;;
14883;SDS011;7534;50.762;7.000;2023-05-23T13:08:16;8.15;;;6.10;;
14883;SDS011;7534;50.762;7.000;2023-05-23T13:10:43;9.02;;;6.10;;
14883;SDS011;7534;50.762;7.000;2023-05-23T13:13:09;6.63;;;5.40;;
14883;SDS011;7534;50.762;7.000;2023-05-23T13:15:34;8.65;;;4.75;;
14883;SDS011;7534;50.762;7.000;2023-05-23T13:18:01;6.85;;;4.55;;
14883;SDS011;7534;50.762;7.000;2023-05-23T13:20:27;7.18;;;4.68;;
14883;SDS011;7534;50.762;7.000;2023-05-23T13:22:55;10.57;;;4.95;;
14883;SDS011;7534;50.762;7.000;2023-05-23T13:25:21;5.63;;;4.47;;
14883;SDS011;7534;50.762;7.000;2023-05-23T13:27:47;6.90;;;4.75;;
14883;SDS011;7534;50.762;7.000;2023-05-23T13:30:13;8.13;;;5.60;;
14883;SDS011;7534;50.762;7.000;2023-05-23T13:32:38;9.70;;;5.60;;
14883;SDS011;7534;50.762;7.000;2023-05-23T13:35:05;7.75;;;5.47;;
14883;SDS011;7534;50.762;7.000;2023-05-23T13:37:31;9.15;;;5.97;;
14883;SDS011;7534;50.762;7.000;2023-05-23T13:39:57;8.85;;;5.88;;
14883;SDS011;7534;50.762;7.000;2023-05-23T13:42:22;9.65;;;5.97;;
14883;SDS011;7534;50.762;7.000;2023-05-23T13:44:48;6.53;;;4.45;;
14883;SDS011;7534;50.762;7.000;2023-05-23T13:47:14;9.55;;;4.20;;
14883;SDS011;7534;50.762;7.000;2023-05-23T13:49:40;5.72;;;4.13;;
14883;SDS011;7534;50.762;7.000;2023-05-23T13:52:07;5.35;;;3.00;;
14883;SDS011;7534;50.762;7.000;2023-05-23T13:54:32;5.32;;;3.53;;
14883;SDS011;7534;50.762;7.000;2023-05-23T13:56:59;4.38;;;3.30;;
14883;SDS011;7534;50.762;7.000;2023-05-23T13:59:25;5.65;;;3.25;;
14883;SDS011;7534;50.762;7.000;2023-05-23T14:01:51;7.63;;;3.92;;
14883;SDS011;7534;50.762;7.000;2023-05-23T14:04:17;7.65;;;3.30;;
14883;SDS011;7534;50.762;7.000;2023-05-23T14:06:43;5.25;;;3.58;;
14883;SDS011;7534;50.762;7.000;2023-05-23T14:09:11;4.88;;;3.40;;
14883;SDS011;7534;50.762;7.000;2023-05-23T14:11:37;8.38;;;4.32;;
14883;SDS011;7534;50.762;7.000;2023-05-23T14:14:03;6.45;;;3.40;;
14883;SDS011;7534;50.762;7.000;2023-05-23T14:16:29;8.38;;;3.80;;
14883;SDS011;7534;50.762;7.000;2023-05-23T14:18:55;7.10;;;3.47;;
14883;SDS011;7534;50.762;7.000;2023-05-23T14:21:21;5.75;;;3.40;;
14883;SDS011;7534;50.762;7.000;2023-05-23T14:23:47;10.57;;;3.50;;
14883;SDS011;7534;50.762;7.000;2023-05-23T14:26:13;6.50;;;3.88;;
14883;SDS011;7534;50.762;7.000;2023-05-23T14:28:39;6.68;;;3.63;;
14883;SDS011;7534;50.762;7.000;2023-05-23T14:31:04;7.65;;;4.32;;
14883;SDS011;7534;50.762;7.000;2023-05-23T14:33:31;10.63;;;4.30;;
14883;SDS011;7534;50.762;7.000;2023-05-23T14:35:57;6.72;;;4.07;;
14883;SDS011;7534;50.762;7.000;2023-05-23T14:38:23;5.85;;;3.83;;
14883;SDS011;7534;50.762;7.000;2023-05-23T14:40:49;10.00;;;4.53;;
14883;SDS011;7534;50.762;7.000;2023-05-23T14:43:14;6.35;;;3.63;;
14883;SDS011;7534;50.762;7.000;2023-05-23T14:45:40;6.82;;;3.78;;
14883;SDS011;7534;50.762;7.000;2023-05-23T14:48:06;7.05;;;3.15;;
14883;SDS011;7534;50.762;7.000;2023-05-23T14:50:33;8.25;;;3.70;;
14883;SDS011;7534;50.762;7.000;2023-05-23T14:52:59;8.30;;;4.50;;
14883;SDS011;7534;50.762;7.000;2023-05-23T14:55:25;9.23;;;5.50;;
14883;SDS011;7534;50.762;7.000;2023-05-23T14:57:51;11.20;;;6.00;;
14883;SDS011;7534;50.762;7.000;2023-05-23T15:00:17;9.43;;;6.07;;
14883;SDS011;7534;50.762;7.000;2023-05-23T15:02:43;6.75;;;5.65;;
14883;SDS011;7534;50.762;7.000;2023-05-23T15:05:10;9.32;;;5.75;;
14883;SDS011;7534;50.762;7.000;2023-05-23T15:07:36;8.75;;;5.03;;
14883;SDS011;7534;50.762;7.000;2023-05-23T15:10:03;9.25;;;4.60;;
14883;SDS011;7534;50.762;7.000;2023-05-23T15:12:30;8.35;;;5.05;;
14883;SDS011;7534;50.762;7.000;2023-05-23T15:14:56;10.55;;;7.18;;